»·PEaware :: HAG11K KBLH-KSNA

HAG11K :: KBLH-KSNA

FLIGHT INFORMATION

Flight Status: Arrived
Operator: Unknown
More flights by this operator :: More flights under this callsign
Pilot: Alex K. (14822)
Aircraft: PIPER PA-31/31P NAVAJO CHIEFTAIN
(PA31)
More flights by this aircraft type
Origin: KBLH Blythe
United States
Destination: KSNA John Wayne-Orange Co
United States
More flights between these airports :: More routes between these airports
Route:
File this flight plan on PilotEdge
Remarks: Callsign "Hageland", Hageland Aviation Services (AK)
Altitude:
(Current/Filed)
8,500ft
Speed:
(Current/Filed)
190kts
Departed: 29-Mar-18 10:44 AM
Arrived: 29-Mar-18 11:39 AM
Distance/Time
Traveled:
157nm/0:55
Distance/Time
To Go:
Arrived

Flight Plot

Page will automatically refresh every two minutes.

Flight plan parsing failed; only flown route is shown


Map Options




Map Legend


Flown Route
Filed Route
Departure Airport
Arrival Airport
Navaid (VOR, NDB)
Fix

Horizontal Profiles

Position Reports

Time Latitude Longitude Heading Altitude Ground
Speed
29-Mar-18 10:27 33.614258 -114.713697 9 394ft 0kts
29-Mar-18 10:28 33.614258 -114.713697 9 394ft 0kts
29-Mar-18 10:29 33.614258 -114.713697 9 394ft 0kts
29-Mar-18 10:30 33.614258 -114.713697 9 394ft 0kts
29-Mar-18 10:31 33.614258 -114.713697 9 394ft 0kts
29-Mar-18 10:32 33.614258 -114.713697 9 394ft 0kts
29-Mar-18 10:33 33.614258 -114.713697 9 394ft 0kts
29-Mar-18 10:34 33.614258 -114.713697 9 394ft 0kts
29-Mar-18 10:35 33.614258 -114.713697 9 394ft 0kts
29-Mar-18 10:36 33.614258 -114.713697 9 394ft 0kts
29-Mar-18 10:37 33.614259 -114.713697 9 394ft 0kts
29-Mar-18 10:38 33.614489 -114.713554 53 394ft 5kts
29-Mar-18 10:39 33.615459 -114.710363 44 394ft 12kts
29-Mar-18 10:40 33.615756 -114.710009 50 394ft 0kts
29-Mar-18 10:41 33.615756 -114.710009 50 394ft 0kts
29-Mar-18 10:42 33.615763 -114.709998 50 394ft 1kts
29-Mar-18 10:43 33.616639 -114.719826 271 553ft 124kts
29-Mar-18 10:44 33.619536 -114.763020 274 2095ft 131kts
29-Mar-18 10:45 33.621575 -114.806203 272 3627ft 130kts
29-Mar-18 10:46 33.622945 -114.849357 272 5168ft 131kts
29-Mar-18 10:47 33.624359 -114.893008 272 6622ft 133kts
29-Mar-18 10:48 33.625705 -114.937430 272 8086ft 134kts
29-Mar-18 10:49 33.627010 -114.987507 274 8490ft 169kts
29-Mar-18 10:50 33.628822 -115.046046 274 8460ft 179kts
29-Mar-18 10:51 33.630592 -115.105896 274 8460ft 180kts
29-Mar-18 10:52 33.632188 -115.165995 273 8458ft 180kts
29-Mar-18 10:53 33.633958 -115.226821 271 8460ft 184kts
29-Mar-18 10:54 33.635488 -115.288621 271 8460ft 185kts
29-Mar-18 10:55 33.637071 -115.350017 271 8460ft 185kts
29-Mar-18 10:56 33.638642 -115.411390 271 8460ft 185kts
29-Mar-18 10:57 33.640183 -115.472817 271 8460ft 185kts
29-Mar-18 10:58 33.641695 -115.534327 271 8460ft 185kts
29-Mar-18 10:59 33.643183 -115.596056 271 8460ft 185kts
29-Mar-18 11:00 33.644616 -115.656822 271 8460ft 185kts
29-Mar-18 11:01 33.645994 -115.716755 271 8460ft 185kts
29-Mar-18 11:02 33.647421 -115.778471 270 8460ft 185kts
29-Mar-18 11:03 33.648745 -115.840425 271 8460ft 185kts
29-Mar-18 11:04 33.650101 -115.902132 271 8460ft 185kts
29-Mar-18 11:05 33.651409 -115.963924 271 8460ft 185kts
29-Mar-18 11:06 33.652742 -116.025801 271 8460ft 185kts
29-Mar-18 11:07 33.653688 -116.087495 274 8460ft 184kts
29-Mar-18 11:08 33.655092 -116.148122 273 8441ft 182kts
29-Mar-18 11:09 33.656302 -116.208278 274 8432ft 182kts
29-Mar-18 11:10 33.657471 -116.267661 272 8432ft 179kts
29-Mar-18 11:11 33.658463 -116.326905 272 8432ft 178kts
29-Mar-18 11:12 33.659615 -116.386287 270 8432ft 179kts
29-Mar-18 11:13 33.660584 -116.446052 270 8485ft 181kts
29-Mar-18 11:14 33.661530 -116.507127 270 8487ft 185kts
29-Mar-18 11:15 33.662550 -116.569232 270 8489ft 188kts
29-Mar-18 11:16 33.663538 -116.631738 270 8504ft 189kts
29-Mar-18 11:17 33.664493 -116.693957 270 8495ft 189kts
29-Mar-18 11:18 33.665437 -116.757342 270 8512ft 189kts
29-Mar-18 11:19 33.666324 -116.819390 270 8486ft 189kts
29-Mar-18 11:20 33.667190 -116.884752 270 7989ft 203kts
29-Mar-18 11:21 33.668112 -116.953201 270 7413ft 205kts
29-Mar-18 11:22 33.669032 -117.021779 270 6852ft 205kts
29-Mar-18 11:23 33.669761 -117.089539 271 6324ft 203kts
29-Mar-18 11:24 33.670571 -117.156718 271 5833ft 201kts
29-Mar-18 11:25 33.671310 -117.222113 271 5702ft 188kts
29-Mar-18 11:26 33.671896 -117.283954 271 5715ft 186kts
29-Mar-18 11:27 33.672141 -117.344673 271 5726ft 186kts
29-Mar-18 11:28 33.672840 -117.406143 271 5703ft 184kts
29-Mar-18 11:29 33.673303 -117.468805 271 5243ft 201kts
29-Mar-18 11:30 33.673885 -117.537162 271 4351ft 207kts
29-Mar-18 11:31 33.681448 -117.604731 284 3498ft 206kts
29-Mar-18 11:32 33.692623 -117.669915 279 2680ft 202kts
29-Mar-18 11:33 33.701832 -117.735935 279 1824ft 203kts
29-Mar-18 11:34 33.709283 -117.790307 279 1195ft 200kts
29-Mar-18 11:35 33.709896 -117.843095 236 712ft 87kts
29-Mar-18 11:36 33.695242 -117.854607 207 420ft 73kts
29-Mar-18 11:37 33.678381 -117.865269 207 60ft 45kts
29-Mar-18 11:38 33.673759 -117.867354 117 60ft 2kts
29-Mar-18 11:39 33.673534 -117.865752 115 60ft 0kts
29-Mar-18 11:40 33.673534 -117.865752 115 60ft 0kts
29-Mar-18 11:41 33.673534 -117.865752 115 60ft 0kts
29-Mar-18 11:42 33.673534 -117.865752 115 60ft 0kts
29-Mar-18 11:43 33.673534 -117.865752 115 60ft 0kts
29-Mar-18 11:44 33.673534 -117.865752 115 60ft 0kts
29-Mar-18 11:45 33.673534 -117.865752 115 60ft 0kts
29-Mar-18 11:46 33.673534 -117.865752 115 60ft 0kts
29-Mar-18 11:47 33.673534 -117.865752 115 60ft 0kts
29-Mar-18 11:48 33.673534 -117.865752 115 60ft 0kts
29-Mar-18 11:49 33.673534 -117.865752 115 60ft 0kts
29-Mar-18 11:50 33.673534 -117.865752 115 60ft 0kts

Navigation Log

Ident Type
Flight plan parsing failed, navigation log unavailable